富士山静岡空港METAR/TAF(約33km東):

RJNS 200200Z 13009KT 9999 FEW025 21/12 Q1017

TAF RJNS 191707Z 1918/2100 26016KT 9999 FEW025 BECMG 2001/2003 16008KT BECMG 2009/2012 01004KT


風向風力(Windy.com):
スマホでの閲覧には、アプリ版Windy(Android/iOS)が適切です。